createdAt,value
2019-02-16T00:00:30.190Z,58.20
2019-02-16T00:04:33.171Z,58.00
2019-02-16T00:08:36.163Z,58.20
2019-02-16T00:12:39.166Z,58.10
2019-02-16T00:16:43.276Z,58.00
2019-02-16T00:20:46.257Z,58.20
2019-02-16T00:24:49.266Z,58.40
2019-02-16T00:28:52.258Z,58.30
2019-02-16T00:32:55.854Z,58.70
2019-02-16T00:36:58.958Z,59.70
2019-02-16T00:41:01.958Z,60.10
2019-02-16T00:45:05.649Z,60.00
2019-02-16T00:49:08.659Z,60.10
2019-02-16T00:53:11.667Z,59.50
2019-02-16T00:57:14.669Z,58.90
2019-02-16T01:01:17.674Z,59.60
2019-02-16T01:05:20.683Z,60.50
2019-02-16T01:09:23.670Z,60.70
2019-02-16T01:13:26.699Z,60.20
2019-02-16T01:17:31.082Z,59.30
2019-02-16T01:21:34.090Z,59.10
2019-02-16T01:25:37.091Z,58.70
2019-02-16T01:29:40.089Z,59.00
2019-02-16T01:33:43.081Z,58.30
2019-02-16T01:37:46.098Z,58.20
2019-02-16T01:41:49.102Z,58.00
2019-02-16T01:45:52.103Z,58.70
2019-02-16T01:49:55.120Z,58.40
2019-02-16T01:53:58.170Z,58.70
2019-02-16T01:58:01.209Z,58.70
2019-02-16T02:02:05.264Z,59.10
2019-02-16T02:06:08.301Z,59.40
2019-02-16T02:10:12.423Z,60.20
2019-02-16T02:14:15.420Z,60.30
2019-02-16T02:18:19.769Z,59.70
2019-02-16T02:22:22.769Z,59.70
2019-02-16T02:26:25.783Z,59.40
2019-02-16T02:30:29.836Z,59.10
2019-02-16T02:34:32.839Z,59.30
2019-02-16T02:38:36.854Z,58.80
2019-02-16T02:42:39.845Z,58.60
2019-02-16T02:46:42.836Z,58.40
2019-02-16T02:50:45.943Z,58.80
2019-02-16T02:54:48.946Z,58.80
2019-02-16T02:58:51.962Z,58.70
2019-02-16T03:02:54.961Z,59.30
2019-02-16T03:06:57.963Z,59.00
2019-02-16T03:11:01.001Z,58.60
2019-02-16T03:15:05.002Z,59.00
2019-02-16T03:19:08.606Z,59.80
2019-02-16T03:23:16.170Z,60.10
2019-02-16T03:27:32.129Z,60.20
2019-02-16T03:31:47.952Z,60.10
2019-02-16T03:36:07.001Z,60.50
2019-02-16T03:40:11.399Z,60.80
2019-02-16T03:44:14.424Z,61.40
2019-02-16T03:48:17.426Z,60.80
2019-02-16T03:52:20.427Z,60.00
2019-02-16T03:56:23.468Z,59.40
2019-02-16T04:00:27.570Z,59.00
2019-02-16T04:04:30.547Z,60.20
2019-02-16T04:08:33.545Z,59.80
2019-02-16T04:12:36.534Z,59.90
2019-02-16T04:16:39.549Z,60.40
2019-02-16T04:20:44.337Z,60.70
2019-02-16T04:24:47.346Z,60.10
2019-02-16T04:28:50.359Z,60.10
2019-02-16T04:32:53.366Z,60.10
2019-02-16T04:36:56.370Z,59.70
2019-02-16T04:40:59.364Z,59.70
2019-02-16T04:45:05.022Z,59.40
2019-02-16T04:49:08.013Z,60.50
2019-02-16T04:53:11.023Z,61.60
2019-02-16T04:57:14.031Z,62.30
2019-02-16T05:01:17.042Z,63.00
2019-02-16T05:05:20.054Z,64.10
2019-02-16T05:09:23.102Z,63.10
2019-02-16T05:13:26.096Z,61.70
2019-02-16T05:17:29.091Z,60.80
2019-02-16T05:21:34.069Z,59.70
2019-02-16T05:25:37.118Z,60.70
2019-02-16T05:29:40.162Z,62.10
2019-02-16T05:33:43.167Z,62.00
2019-02-16T05:37:46.177Z,61.30
2019-02-16T05:41:49.169Z,60.90
2019-02-16T05:45:52.153Z,61.10
2019-02-16T05:49:55.168Z,61.60
2019-02-16T05:53:58.204Z,62.70
2019-02-16T05:58:01.202Z,61.50
2019-02-16T06:02:04.209Z,61.20
2019-02-16T06:06:07.242Z,60.60
2019-02-16T06:10:10.236Z,60.50
2019-02-16T06:14:13.506Z,62.10
2019-02-16T06:18:16.522Z,66.10
2019-02-16T06:22:20.892Z,65.90
2019-02-16T06:26:23.880Z,63.60
2019-02-16T06:30:26.887Z,61.60
2019-02-16T06:34:29.862Z,60.00
2019-02-16T06:38:32.862Z,59.40
2019-02-16T06:42:35.854Z,59.50
2019-02-16T06:46:38.889Z,59.60
2019-02-16T06:50:42.905Z,60.90
2019-02-16T06:54:45.900Z,61.40
2019-02-16T06:58:48.903Z,61.50
2019-02-16T07:02:51.908Z,61.00
2019-02-16T07:06:54.927Z,60.50
2019-02-16T07:10:58.005Z,59.70
2019-02-16T07:15:01.065Z,59.60
2019-02-16T07:19:08.462Z,59.80
2019-02-16T07:23:11.733Z,60.40
2019-02-16T07:27:14.802Z,60.30
2019-02-16T07:31:17.847Z,61.50
2019-02-16T07:35:20.836Z,59.90
2019-02-16T07:39:23.825Z,57.40
2019-02-16T07:43:43.381Z,53.90
2019-02-16T07:47:50.789Z,52.30
2019-02-16T07:52:07.561Z,49.90
2019-02-16T07:56:12.465Z,45.40
2019-02-16T08:00:17.353Z,42.80
2019-02-16T08:04:22.276Z,40.00
2019-02-16T08:08:43.971Z,38.40
2019-02-16T08:12:51.648Z,36.40
2019-02-16T08:17:11.638Z,34.50
2019-02-16T08:21:19.311Z,33.20
2019-02-16T08:25:31.995Z,30.80
2019-02-16T08:29:42.459Z,29.80
2019-02-16T08:33:59.322Z,29.90
2019-02-16T08:38:06.723Z,29.80
2019-02-16T08:42:17.756Z,30.00
2019-02-16T08:46:22.640Z,29.10
2019-02-16T08:50:29.456Z,28.90
2019-02-16T08:54:39.872Z,28.40
2019-02-16T08:58:50.567Z,28.40
2019-02-16T09:02:55.494Z,28.50
2019-02-16T09:07:07.172Z,28.40
2019-02-16T09:11:18.042Z,28.20
2019-02-16T09:15:34.876Z,28.50
2019-02-16T09:19:42.300Z,28.30
2019-02-16T09:23:47.212Z,27.60
2019-02-16T09:28:08.594Z,27.00
2019-02-16T09:32:13.496Z,26.80
2019-02-16T09:36:18.399Z,27.80
2019-02-16T09:40:35.980Z,28.70
2019-02-16T09:44:41.365Z,30.00
2019-02-16T09:48:52.192Z,32.10
2019-02-16T09:53:01.571Z,34.20
2019-02-16T09:57:16.370Z,34.80
2019-02-16T10:01:27.532Z,37.00
2019-02-16T10:05:44.872Z,38.10
2019-02-16T10:09:51.421Z,36.80
2019-02-16T10:13:56.783Z,36.10
2019-02-16T10:18:18.826Z,35.30
2019-02-16T10:22:23.873Z,35.80
2019-02-16T10:26:32.000Z,34.90
2019-02-16T10:30:38.269Z,36.40
2019-02-16T10:34:52.057Z,36.50
2019-02-16T10:39:06.069Z,36.30
2019-02-16T10:43:17.095Z,34.80
2019-02-16T10:47:30.571Z,35.50
2019-02-16T10:51:50.355Z,35.00
2019-02-16T10:55:55.254Z,36.20
2019-02-16T11:00:00.356Z,34.70
2019-02-16T11:04:05.262Z,35.50
2019-02-16T11:08:15.945Z,33.80
2019-02-16T11:12:35.920Z,35.60
2019-02-16T11:16:40.942Z,35.40
2019-02-16T11:20:48.370Z,35.80
2019-02-16T11:24:56.034Z,35.90
2019-02-16T11:29:04.043Z,34.60
2019-02-16T11:33:13.509Z,36.10
2019-02-16T11:37:18.602Z,35.70
2019-02-16T11:41:26.278Z,35.00
2019-02-16T11:45:33.934Z,35.10
2019-02-16T11:49:39.076Z,35.40
2019-02-16T11:53:44.020Z,35.60
2019-02-16T11:58:04.017Z,36.10
2019-02-16T12:02:14.815Z,36.10
2019-02-16T12:06:25.546Z,36.00
2019-02-16T12:10:31.516Z,34.60
2019-02-16T12:14:54.575Z,36.00
2019-02-16T12:19:02.308Z,36.00
2019-02-16T12:23:07.226Z,35.80
2019-02-16T12:27:12.126Z,35.10
2019-02-16T12:31:17.114Z,35.40
2019-02-16T12:35:26.359Z,35.70
2019-02-16T12:39:31.429Z,35.50
2019-02-16T12:43:36.317Z,35.10
2019-02-16T12:47:47.044Z,34.70
2019-02-16T12:52:08.890Z,34.20
2019-02-16T12:56:13.815Z,34.50
2019-02-16T13:00:18.764Z,36.20
2019-02-16T13:04:35.690Z,37.00
2019-02-16T13:08:40.626Z,34.90
2019-02-16T13:12:45.544Z,34.50
2019-02-16T13:16:50.511Z,33.90
2019-02-16T13:20:58.330Z,34.30
2019-02-16T13:25:03.341Z,35.50
2019-02-16T13:29:10.777Z,34.70
2019-02-16T13:33:24.619Z,33.30
2019-02-16T13:37:30.849Z,33.60
2019-02-16T13:41:38.832Z,33.80
2019-02-16T13:45:43.984Z,33.70
2019-02-16T13:49:54.007Z,35.90
2019-02-16T13:53:58.920Z,34.40
2019-02-16T13:58:21.935Z,34.00
2019-02-16T14:02:29.654Z,35.10
2019-02-16T14:06:37.336Z,35.10
2019-02-16T14:10:45.054Z,35.30
2019-02-16T14:15:01.995Z,35.50
2019-02-16T14:19:04.982Z,35.20
2019-02-16T14:23:07.997Z,35.30
2019-02-16T14:27:11.001Z,35.50
2019-02-16T14:31:15.905Z,35.90
2019-02-16T14:35:21.142Z,35.70
2019-02-16T14:39:26.805Z,36.20
2019-02-16T14:43:29.814Z,35.80
2019-02-16T14:47:32.828Z,36.50
2019-02-16T14:51:37.266Z,36.90
2019-02-16T14:55:40.244Z,37.30
2019-02-16T14:59:43.245Z,37.10
2019-02-16T15:03:46.242Z,36.60
2019-02-16T15:07:52.691Z,37.60
2019-02-16T15:11:55.877Z,37.40
2019-02-16T15:15:58.979Z,38.00
2019-02-16T15:20:05.002Z,38.30
2019-02-16T15:24:08.206Z,38.60
2019-02-16T15:28:12.359Z,38.70
2019-02-16T15:32:15.394Z,38.90
2019-02-16T15:36:23.943Z,39.20
2019-02-16T15:40:30.276Z,39.80
2019-02-16T15:44:33.811Z,40.10
2019-02-16T15:48:37.300Z,40.50
2019-02-16T15:52:47.562Z,41.20
2019-02-16T15:56:51.111Z,41.40
2019-02-16T16:00:54.461Z,41.60
2019-02-16T16:04:58.530Z,42.20
2019-02-16T16:09:06.593Z,42.70
2019-02-16T16:13:11.878Z,43.20
2019-02-16T16:17:31.980Z,43.80
2019-02-16T16:21:45.970Z,44.70
2019-02-16T16:25:50.870Z,45.40
2019-02-16T16:30:00.763Z,45.40
2019-02-16T16:34:08.480Z,45.30
2019-02-16T16:38:13.396Z,46.30
2019-02-16T16:42:24.794Z,46.30
2019-02-16T16:46:43.934Z,47.00
2019-02-16T16:51:12.172Z,47.80
2019-02-16T16:55:29.949Z,48.40
2019-02-16T16:59:41.029Z,48.50
2019-02-16T17:03:46.934Z,49.10
2019-02-16T17:07:52.906Z,49.30
2019-02-16T17:12:15.576Z,49.80
2019-02-16T17:16:27.383Z,50.20
2019-02-16T17:20:33.390Z,50.60
2019-02-16T17:24:44.253Z,50.80
2019-02-16T17:29:04.479Z,50.90
2019-02-16T17:33:18.078Z,51.40
2019-02-16T17:37:25.880Z,52.20
2019-02-16T17:41:46.087Z,52.60
2019-02-16T17:46:00.922Z,52.80
2019-02-16T17:50:26.987Z,52.80
2019-02-16T17:54:43.650Z,52.30
2019-02-16T17:58:52.179Z,52.60
2019-02-16T18:03:09.072Z,52.90
2019-02-16T18:07:17.035Z,53.10
2019-02-16T18:11:21.982Z,53.70
2019-02-16T18:15:26.905Z,53.60
2019-02-16T18:19:38.246Z,54.00
2019-02-16T18:23:52.203Z,54.20
2019-02-16T18:27:57.193Z,54.50
2019-02-16T18:32:02.113Z,55.60
2019-02-16T18:36:09.778Z,55.30
2019-02-16T18:40:14.780Z,55.50
2019-02-16T18:44:20.980Z,55.50
2019-02-16T18:48:26.979Z,55.80
2019-02-16T18:52:48.235Z,56.70
2019-02-16T18:57:09.585Z,56.50
2019-02-16T19:01:25.602Z,56.60
2019-02-16T19:05:30.485Z,56.30
2019-02-16T19:09:35.477Z,56.00
2019-02-16T19:13:42.922Z,55.90
2019-02-16T19:17:48.046Z,56.40
2019-02-16T19:21:53.185Z,57.00
2019-02-16T19:25:58.251Z,57.70
2019-02-16T19:30:15.479Z,57.80
2019-02-16T19:34:27.470Z,57.60
2019-02-16T19:38:32.371Z,57.40
2019-02-16T19:42:43.273Z,57.60
2019-02-16T19:46:54.192Z,57.60
2019-02-16T19:50:59.552Z,57.80
2019-02-16T19:55:08.944Z,58.00
2019-02-16T19:59:27.572Z,57.30
2019-02-16T20:03:32.522Z,57.30
2019-02-16T20:07:37.438Z,57.60
2019-02-16T20:11:54.098Z,58.10
2019-02-16T20:16:09.851Z,58.70
2019-02-16T20:20:14.746Z,58.80
2019-02-16T20:24:25.950Z,59.50
2019-02-16T20:28:30.861Z,59.40
2019-02-16T20:32:35.774Z,59.20
2019-02-16T20:36:40.683Z,59.20
2019-02-16T20:41:02.664Z,59.50
2019-02-16T20:45:11.967Z,59.60
2019-02-16T20:49:22.907Z,60.00
2019-02-16T20:53:29.081Z,59.90
2019-02-16T20:57:47.481Z,59.40
2019-02-16T21:01:53.474Z,59.30
2019-02-16T21:06:14.990Z,60.00
2019-02-16T21:10:32.339Z,59.90
2019-02-16T21:14:53.700Z,60.10
2019-02-16T21:18:58.598Z,60.00
2019-02-16T21:23:20.027Z,59.60
2019-02-16T21:27:24.931Z,59.20
2019-02-16T21:31:29.837Z,59.50
2019-02-16T21:35:52.666Z,60.10
2019-02-16T21:40:06.429Z,59.90
2019-02-16T21:44:26.226Z,59.80
2019-02-16T21:48:34.190Z,59.80
2019-02-16T21:52:44.661Z,59.40
2019-02-16T21:57:07.315Z,59.00
2019-02-16T22:01:12.219Z,59.90
2019-02-16T22:05:33.650Z,61.00
2019-02-16T22:09:45.259Z,61.80
2019-02-16T22:13:49.310Z,61.80
2019-02-16T22:17:53.370Z,61.40
2019-02-16T22:21:56.362Z,61.00
2019-02-16T22:25:59.367Z,61.70
2019-02-16T22:30:03.868Z,62.00
2019-02-16T22:34:06.842Z,62.60
2019-02-16T22:38:09.909Z,62.40
2019-02-16T22:42:12.919Z,61.10
2019-02-16T22:46:15.938Z,62.10
2019-02-16T22:50:18.995Z,62.60
2019-02-16T22:54:22.057Z,62.60
2019-02-16T22:58:28.871Z,62.20
2019-02-16T23:02:30.925Z,62.50
2019-02-16T23:06:33.947Z,61.50
2019-02-16T23:10:36.939Z,61.20
2019-02-16T23:14:39.995Z,61.20
2019-02-16T23:18:43.000Z,60.80
2019-02-16T23:22:46.011Z,60.80
2019-02-16T23:26:49.019Z,60.70
2019-02-16T23:30:52.024Z,60.90
2019-02-16T23:34:55.014Z,60.70
2019-02-16T23:38:58.010Z,60.90
2019-02-16T23:43:01.027Z,61.50
2019-02-16T23:47:04.016Z,62.10
2019-02-16T23:51:07.064Z,62.20
2019-02-16T23:55:10.091Z,62.40
2019-02-16T23:59:14.781Z,62.30
